sensor_id;sensor_type;location;lat;lon;timestamp;P1;durP1;ratioP1;P2;durP2;ratioP2
15317;SDS011;7759;52.528;13.346;2023-05-31T00:00:27;2.40;;;1.08;;
15317;SDS011;7759;52.528;13.346;2023-05-31T00:02:53;2.65;;;1.20;;
15317;SDS011;7759;52.528;13.346;2023-05-31T00:05:19;4.57;;;1.30;;
15317;SDS011;7759;52.528;13.346;2023-05-31T00:07:45;2.45;;;1.00;;
15317;SDS011;7759;52.528;13.346;2023-05-31T00:10:11;4.25;;;1.23;;
15317;SDS011;7759;52.528;13.346;2023-05-31T00:12:37;2.45;;;1.08;;
15317;SDS011;7759;52.528;13.346;2023-05-31T00:15:03;2.80;;;1.17;;
15317;SDS011;7759;52.528;13.346;2023-05-31T00:17:29;3.58;;;1.17;;
15317;SDS011;7759;52.528;13.346;2023-05-31T00:19:55;4.78;;;1.08;;
15317;SDS011;7759;52.528;13.346;2023-05-31T00:22:21;2.58;;;0.88;;
15317;SDS011;7759;52.528;13.346;2023-05-31T00:24:46;3.40;;;1.10;;
15317;SDS011;7759;52.528;13.346;2023-05-31T00:27:12;1.63;;;1.20;;
15317;SDS011;7759;52.528;13.346;2023-05-31T00:29:40;2.75;;;1.13;;
15317;SDS011;7759;52.528;13.346;2023-05-31T00:32:06;2.03;;;1.13;;
15317;SDS011;7759;52.528;13.346;2023-05-31T00:34:32;1.45;;;1.23;;
15317;SDS011;7759;52.528;13.346;2023-05-31T00:36:58;1.95;;;1.15;;
15317;SDS011;7759;52.528;13.346;2023-05-31T00:39:23;1.73;;;0.93;;
15317;SDS011;7759;52.528;13.346;2023-05-31T00:41:49;1.63;;;1.13;;
15317;SDS011;7759;52.528;13.346;2023-05-31T00:44:15;1.55;;;1.20;;
15317;SDS011;7759;52.528;13.346;2023-05-31T00:46:41;2.90;;;1.23;;
15317;SDS011;7759;52.528;13.346;2023-05-31T00:49:07;2.35;;;1.10;;
15317;SDS011;7759;52.528;13.346;2023-05-31T00:51:33;1.97;;;1.30;;
15317;SDS011;7759;52.528;13.346;2023-05-31T00:54:01;2.30;;;1.20;;
15317;SDS011;7759;52.528;13.346;2023-05-31T00:56:27;1.77;;;1.00;;
15317;SDS011;7759;52.528;13.346;2023-05-31T00:58:54;1.75;;;1.08;;
15317;SDS011;7759;52.528;13.346;2023-05-31T01:01:20;2.20;;;1.20;;
15317;SDS011;7759;52.528;13.346;2023-05-31T01:03:51;1.30;;;1.10;;
15317;SDS011;7759;52.528;13.346;2023-05-31T01:06:17;1.45;;;1.10;;
15317;SDS011;7759;52.528;13.346;2023-05-31T01:08:43;2.28;;;1.13;;
15317;SDS011;7759;52.528;13.346;2023-05-31T01:11:13;3.13;;;1.25;;
15317;SDS011;7759;52.528;13.346;2023-05-31T01:13:43;1.77;;;1.20;;
15317;SDS011;7759;52.528;13.346;2023-05-31T01:16:10;2.33;;;1.15;;
15317;SDS011;7759;52.528;13.346;2023-05-31T01:18:39;2.10;;;1.05;;
15317;SDS011;7759;52.528;13.346;2023-05-31T01:21:10;3.78;;;1.17;;
15317;SDS011;7759;52.528;13.346;2023-05-31T01:38:55;1.75;;;1.00;;
15317;SDS011;7759;52.528;13.346;2023-05-31T01:41:21;2.43;;;1.30;;
15317;SDS011;7759;52.528;13.346;2023-05-31T01:43:48;1.83;;;1.27;;
15317;SDS011;7759;52.528;13.346;2023-05-31T01:46:15;3.03;;;1.23;;
15317;SDS011;7759;52.528;13.346;2023-05-31T01:48:42;1.25;;;1.00;;
15317;SDS011;7759;52.528;13.346;2023-05-31T01:51:09;2.67;;;1.17;;
15317;SDS011;7759;52.528;13.346;2023-05-31T01:53:36;3.20;;;1.10;;
15317;SDS011;7759;52.528;13.346;2023-05-31T01:56:02;3.23;;;1.33;;
15317;SDS011;7759;52.528;13.346;2023-05-31T01:58:29;2.17;;;1.10;;
15317;SDS011;7759;52.528;13.346;2023-05-31T02:00:56;2.13;;;1.13;;
15317;SDS011;7759;52.528;13.346;2023-05-31T02:03:23;1.47;;;1.13;;
15317;SDS011;7759;52.528;13.346;2023-05-31T02:05:59;1.75;;;1.30;;
15317;SDS011;7759;52.528;13.346;2023-05-31T02:08:25;3.40;;;1.33;;
15317;SDS011;7759;52.528;13.346;2023-05-31T02:10:51;6.17;;;1.60;;
15317;SDS011;7759;52.528;13.346;2023-05-31T02:13:18;3.50;;;1.40;;
15317;SDS011;7759;52.528;13.346;2023-05-31T02:15:44;2.80;;;1.52;;
15317;SDS011;7759;52.528;13.346;2023-05-31T02:18:10;2.72;;;1.13;;
15317;SDS011;7759;52.528;13.346;2023-05-31T02:20:37;1.57;;;1.20;;
15317;SDS011;7759;52.528;13.346;2023-05-31T02:23:03;1.60;;;1.08;;
15317;SDS011;7759;52.528;13.346;2023-05-31T02:25:29;2.33;;;1.23;;
15317;SDS011;7759;52.528;13.346;2023-05-31T02:27:55;2.20;;;1.57;;
15317;SDS011;7759;52.528;13.346;2023-05-31T02:30:22;2.20;;;1.20;;
15317;SDS011;7759;52.528;13.346;2023-05-31T02:32:48;1.73;;;1.20;;
15317;SDS011;7759;52.528;13.346;2023-05-31T02:35:14;3.03;;;1.20;;
15317;SDS011;7759;52.528;13.346;2023-05-31T02:37:40;1.60;;;1.23;;
15317;SDS011;7759;52.528;13.346;2023-05-31T02:40:06;2.93;;;1.27;;
15317;SDS011;7759;52.528;13.346;2023-05-31T02:42:35;5.27;;;1.00;;
15317;SDS011;7759;52.528;13.346;2023-05-31T02:45:02;3.57;;;1.03;;
15317;SDS011;7759;52.528;13.346;2023-05-31T02:47:28;1.57;;;1.07;;
15317;SDS011;7759;52.528;13.346;2023-05-31T02:49:54;2.00;;;1.40;;
15317;SDS011;7759;52.528;13.346;2023-05-31T02:52:20;2.43;;;1.10;;
15317;SDS011;7759;52.528;13.346;2023-05-31T02:54:48;3.87;;;1.00;;
15317;SDS011;7759;52.528;13.346;2023-05-31T02:57:14;4.33;;;1.27;;
15317;SDS011;7759;52.528;13.346;2023-05-31T02:59:40;2.37;;;1.30;;
15317;SDS011;7759;52.528;13.346;2023-05-31T03:02:06;1.87;;;1.07;;
15317;SDS011;7759;52.528;13.346;2023-05-31T03:04:32;3.17;;;1.50;;
15317;SDS011;7759;52.528;13.346;2023-05-31T03:06:58;3.20;;;1.70;;
15317;SDS011;7759;52.528;13.346;2023-05-31T03:09:24;2.13;;;1.27;;
15317;SDS011;7759;52.528;13.346;2023-05-31T03:11:50;1.83;;;1.33;;
15317;SDS011;7759;52.528;13.346;2023-05-31T03:14:16;4.63;;;1.27;;
15317;SDS011;7759;52.528;13.346;2023-05-31T03:16:42;2.77;;;1.33;;
15317;SDS011;7759;52.528;13.346;2023-05-31T03:19:08;4.07;;;1.40;;
15317;SDS011;7759;52.528;13.346;2023-05-31T03:21:35;2.43;;;1.27;;
15317;SDS011;7759;52.528;13.346;2023-05-31T03:24:01;2.13;;;1.27;;
15317;SDS011;7759;52.528;13.346;2023-05-31T03:26:26;2.47;;;1.30;;
15317;SDS011;7759;52.528;13.346;2023-05-31T03:28:52;4.33;;;1.30;;
15317;SDS011;7759;52.528;13.346;2023-05-31T03:31:18;5.60;;;1.30;;
15317;SDS011;7759;52.528;13.346;2023-05-31T03:33:44;6.70;;;2.43;;
15317;SDS011;7759;52.528;13.346;2023-05-31T03:36:10;3.50;;;1.50;;
15317;SDS011;7759;52.528;13.346;2023-05-31T03:38:36;1.77;;;0.97;;
15317;SDS011;7759;52.528;13.346;2023-05-31T03:41:02;1.80;;;1.20;;
15317;SDS011;7759;52.528;13.346;2023-05-31T03:43:28;2.67;;;1.50;;
15317;SDS011;7759;52.528;13.346;2023-05-31T03:45:53;5.43;;;1.70;;
15317;SDS011;7759;52.528;13.346;2023-05-31T03:48:20;2.10;;;1.30;;
15317;SDS011;7759;52.528;13.346;2023-05-31T03:50:45;2.20;;;1.40;;
15317;SDS011;7759;52.528;13.346;2023-05-31T03:53:11;3.53;;;1.27;;
15317;SDS011;7759;52.528;13.346;2023-05-31T03:55:37;2.90;;;1.20;;
15317;SDS011;7759;52.528;13.346;2023-05-31T03:58:03;3.43;;;1.30;;
15317;SDS011;7759;52.528;13.346;2023-05-31T04:00:29;1.03;;;0.90;;
15317;SDS011;7759;52.528;13.346;2023-05-31T04:02:56;1.97;;;1.27;;
15317;SDS011;7759;52.528;13.346;2023-05-31T04:05:21;2.33;;;1.10;;
15317;SDS011;7759;52.528;13.346;2023-05-31T04:07:47;4.27;;;1.30;;
15317;SDS011;7759;52.528;13.346;2023-05-31T04:10:13;5.03;;;1.80;;
15317;SDS011;7759;52.528;13.346;2023-05-31T04:12:39;2.47;;;1.33;;
15317;SDS011;7759;52.528;13.346;2023-05-31T04:15:05;4.83;;;1.77;;
15317;SDS011;7759;52.528;13.346;2023-05-31T04:17:31;4.97;;;1.70;;
15317;SDS011;7759;52.528;13.346;2023-05-31T04:19:57;1.83;;;1.50;;
15317;SDS011;7759;52.528;13.346;2023-05-31T04:22:23;4.77;;;1.60;;
15317;SDS011;7759;52.528;13.346;2023-05-31T04:24:49;3.90;;;1.50;;
15317;SDS011;7759;52.528;13.346;2023-05-31T04:27:15;2.53;;;1.20;;
15317;SDS011;7759;52.528;13.346;2023-05-31T04:29:43;3.37;;;1.63;;
15317;SDS011;7759;52.528;13.346;2023-05-31T04:32:10;4.17;;;1.50;;
15317;SDS011;7759;52.528;13.346;2023-05-31T04:34:39;2.03;;;1.50;;
15317;SDS011;7759;52.528;13.346;2023-05-31T04:37:05;1.73;;;1.10;;
15317;SDS011;7759;52.528;13.346;2023-05-31T04:39:32;5.40;;;1.70;;
15317;SDS011;7759;52.528;13.346;2023-05-31T04:41:58;5.63;;;1.80;;
15317;SDS011;7759;52.528;13.346;2023-05-31T04:44:27;4.87;;;1.67;;
15317;SDS011;7759;52.528;13.346;2023-05-31T04:46:53;3.33;;;1.67;;
15317;SDS011;7759;52.528;13.346;2023-05-31T04:49:19;5.17;;;1.63;;
15317;SDS011;7759;52.528;13.346;2023-05-31T04:51:45;9.87;;;1.97;;
15317;SDS011;7759;52.528;13.346;2023-05-31T04:54:11;2.87;;;1.30;;
15317;SDS011;7759;52.528;13.346;2023-05-31T04:56:37;2.97;;;1.43;;
15317;SDS011;7759;52.528;13.346;2023-05-31T04:59:03;5.17;;;1.40;;
15317;SDS011;7759;52.528;13.346;2023-05-31T05:01:29;3.47;;;1.63;;
15317;SDS011;7759;52.528;13.346;2023-05-31T05:03:56;4.70;;;1.30;;
15317;SDS011;7759;52.528;13.346;2023-05-31T05:06:22;6.00;;;1.73;;
15317;SDS011;7759;52.528;13.346;2023-05-31T05:08:49;3.00;;;1.80;;
15317;SDS011;7759;52.528;13.346;2023-05-31T05:11:15;8.83;;;1.63;;
15317;SDS011;7759;52.528;13.346;2023-05-31T05:13:41;3.97;;;1.87;;
15317;SDS011;7759;52.528;13.346;2023-05-31T05:16:07;2.37;;;1.20;;
15317;SDS011;7759;52.528;13.346;2023-05-31T05:18:33;7.33;;;1.50;;
15317;SDS011;7759;52.528;13.346;2023-05-31T05:20:59;4.37;;;1.90;;
15317;SDS011;7759;52.528;13.346;2023-05-31T05:23:25;3.70;;;1.50;;
15317;SDS011;7759;52.528;13.346;2023-05-31T05:25:51;3.00;;;1.47;;
15317;SDS011;7759;52.528;13.346;2023-05-31T05:28:17;4.40;;;1.23;;
15317;SDS011;7759;52.528;13.346;2023-05-31T05:30:44;2.97;;;1.30;;
15317;SDS011;7759;52.528;13.346;2023-05-31T05:33:10;4.82;;;1.60;;
15317;SDS011;7759;52.528;13.346;2023-05-31T05:35:36;1.63;;;1.10;;
15317;SDS011;7759;52.528;13.346;2023-05-31T05:38:02;3.93;;;1.17;;
15317;SDS011;7759;52.528;13.346;2023-05-31T05:40:27;6.53;;;1.70;;
15317;SDS011;7759;52.528;13.346;2023-05-31T05:42:53;5.25;;;1.27;;
15317;SDS011;7759;52.528;13.346;2023-05-31T05:45:20;5.32;;;1.50;;
15317;SDS011;7759;52.528;13.346;2023-05-31T05:47:45;5.47;;;1.33;;
15317;SDS011;7759;52.528;13.346;2023-05-31T05:50:13;2.03;;;1.50;;
15317;SDS011;7759;52.528;13.346;2023-05-31T05:52:39;1.93;;;1.27;;
15317;SDS011;7759;52.528;13.346;2023-05-31T05:55:05;3.20;;;1.50;;
15317;SDS011;7759;52.528;13.346;2023-05-31T05:57:31;2.37;;;1.87;;
15317;SDS011;7759;52.528;13.346;2023-05-31T05:59:57;3.97;;;1.87;;
15317;SDS011;7759;52.528;13.346;2023-05-31T06:02:23;2.85;;;1.75;;
15317;SDS011;7759;52.528;13.346;2023-05-31T06:04:49;3.47;;;1.50;;
15317;SDS011;7759;52.528;13.346;2023-05-31T06:07:16;7.97;;;1.65;;
15317;SDS011;7759;52.528;13.346;2023-05-31T06:09:42;3.00;;;1.20;;
15317;SDS011;7759;52.528;13.346;2023-05-31T06:12:08;3.63;;;1.60;;
15317;SDS011;7759;52.528;13.346;2023-05-31T06:14:34;3.15;;;1.38;;
15317;SDS011;7759;52.528;13.346;2023-05-31T06:17:00;3.28;;;2.03;;
15317;SDS011;7759;52.528;13.346;2023-05-31T06:19:26;3.88;;;1.33;;
15317;SDS011;7759;52.528;13.346;2023-05-31T06:21:52;2.58;;;1.50;;
15317;SDS011;7759;52.528;13.346;2023-05-31T06:24:21;2.72;;;1.55;;
15317;SDS011;7759;52.528;13.346;2023-05-31T06:26:47;3.80;;;1.58;;
15317;SDS011;7759;52.528;13.346;2023-05-31T06:29:13;3.53;;;1.20;;
15317;SDS011;7759;52.528;13.346;2023-05-31T06:31:39;3.50;;;1.55;;
15317;SDS011;7759;52.528;13.346;2023-05-31T06:34:05;1.67;;;1.20;;
15317;SDS011;7759;52.528;13.346;2023-05-31T06:36:31;8.10;;;1.65;;
15317;SDS011;7759;52.528;13.346;2023-05-31T06:38:57;1.80;;;1.13;;
15317;SDS011;7759;52.528;13.346;2023-05-31T06:41:23;4.30;;;1.50;;
15317;SDS011;7759;52.528;13.346;2023-05-31T06:43:49;3.75;;;1.48;;
15317;SDS011;7759;52.528;13.346;2023-05-31T06:46:15;8.98;;;2.85;;
15317;SDS011;7759;52.528;13.346;2023-05-31T06:48:41;9.00;;;2.25;;
15317;SDS011;7759;52.528;13.346;2023-05-31T06:51:07;4.72;;;1.88;;
15317;SDS011;7759;52.528;13.346;2023-05-31T06:53:33;4.45;;;1.80;;
15317;SDS011;7759;52.528;13.346;2023-05-31T06:55:59;5.53;;;1.55;;
15317;SDS011;7759;52.528;13.346;2023-05-31T06:58:28;7.20;;;2.00;;
15317;SDS011;7759;52.528;13.346;2023-05-31T07:00:55;4.22;;;1.95;;
15317;SDS011;7759;52.528;13.346;2023-05-31T07:03:22;12.38;;;2.13;;
15317;SDS011;7759;52.528;13.346;2023-05-31T07:05:47;4.35;;;1.73;;
15317;SDS011;7759;52.528;13.346;2023-05-31T07:08:13;23.95;;;2.33;;
15317;SDS011;7759;52.528;13.346;2023-05-31T07:10:42;2.83;;;1.42;;
15317;SDS011;7759;52.528;13.346;2023-05-31T07:13:10;3.17;;;1.50;;
15317;SDS011;7759;52.528;13.346;2023-05-31T07:15:36;2.15;;;1.10;;
15317;SDS011;7759;52.528;13.346;2023-05-31T07:18:02;3.97;;;1.88;;
15317;SDS011;7759;52.528;13.346;2023-05-31T07:20:28;5.78;;;1.77;;
15317;SDS011;7759;52.528;13.346;2023-05-31T07:22:54;3.78;;;1.85;;
15317;SDS011;7759;52.528;13.346;2023-05-31T07:25:20;3.30;;;1.85;;
15317;SDS011;7759;52.528;13.346;2023-05-31T07:27:46;4.72;;;1.98;;
15317;SDS011;7759;52.528;13.346;2023-05-31T07:30:12;4.40;;;1.88;;
15317;SDS011;7759;52.528;13.346;2023-05-31T07:32:37;5.57;;;1.85;;
15317;SDS011;7759;52.528;13.346;2023-05-31T07:35:03;5.35;;;1.88;;
15317;SDS011;7759;52.528;13.346;2023-05-31T07:37:31;10.30;;;1.88;;
15317;SDS011;7759;52.528;13.346;2023-05-31T07:39:57;4.97;;;1.67;;
15317;SDS011;7759;52.528;13.346;2023-05-31T07:42:23;5.85;;;2.08;;
15317;SDS011;7759;52.528;13.346;2023-05-31T07:44:49;4.30;;;1.38;;
15317;SDS011;7759;52.528;13.346;2023-05-31T07:47:15;2.47;;;1.30;;
15317;SDS011;7759;52.528;13.346;2023-05-31T07:49:41;3.67;;;1.90;;
15317;SDS011;7759;52.528;13.346;2023-05-31T07:52:07;4.15;;;1.77;;
15317;SDS011;7759;52.528;13.346;2023-05-31T07:54:33;5.72;;;1.67;;
15317;SDS011;7759;52.528;13.346;2023-05-31T07:56:59;3.05;;;1.70;;
15317;SDS011;7759;52.528;13.346;2023-05-31T07:59:25;3.05;;;1.33;;
15317;SDS011;7759;52.528;13.346;2023-05-31T08:01:51;3.90;;;1.38;;
15317;SDS011;7759;52.528;13.346;2023-05-31T08:04:17;2.42;;;1.27;;
15317;SDS011;7759;52.528;13.346;2023-05-31T08:06:43;3.42;;;1.60;;
15317;SDS011;7759;52.528;13.346;2023-05-31T08:09:09;3.40;;;1.90;;
15317;SDS011;7759;52.528;13.346;2023-05-31T08:11:35;6.45;;;1.52;;
15317;SDS011;7759;52.528;13.346;2023-05-31T08:14:02;4.20;;;1.88;;
15317;SDS011;7759;52.528;13.346;2023-05-31T08:16:29;7.90;;;2.03;;
15317;SDS011;7759;52.528;13.346;2023-05-31T08:18:55;4.93;;;1.60;;
15317;SDS011;7759;52.528;13.346;2023-05-31T08:21:20;3.80;;;1.48;;
15317;SDS011;7759;52.528;13.346;2023-05-31T08:23:46;4.07;;;1.60;;
15317;SDS011;7759;52.528;13.346;2023-05-31T08:26:12;2.95;;;1.48;;
15317;SDS011;7759;52.528;13.346;2023-05-31T08:28:38;3.10;;;1.42;;
15317;SDS011;7759;52.528;13.346;2023-05-31T08:31:05;3.08;;;1.75;;
15317;SDS011;7759;52.528;13.346;2023-05-31T08:33:31;2.70;;;1.33;;
15317;SDS011;7759;52.528;13.346;2023-05-31T08:35:58;3.03;;;1.60;;
15317;SDS011;7759;52.528;13.346;2023-05-31T08:38:24;3.95;;;1.77;;
15317;SDS011;7759;52.528;13.346;2023-05-31T08:40:50;2.65;;;1.40;;
15317;SDS011;7759;52.528;13.346;2023-05-31T08:43:16;4.18;;;1.60;;
15317;SDS011;7759;52.528;13.346;2023-05-31T08:45:46;4.85;;;1.92;;
15317;SDS011;7759;52.528;13.346;2023-05-31T08:48:21;2.63;;;1.20;;
15317;SDS011;7759;52.528;13.346;2023-05-31T08:50:48;1.73;;;1.05;;
15317;SDS011;7759;52.528;13.346;2023-05-31T08:53:15;2.75;;;1.40;;
15317;SDS011;7759;52.528;13.346;2023-05-31T08:55:43;2.33;;;1.40;;
15317;SDS011;7759;52.528;13.346;2023-05-31T08:58:13;3.65;;;1.45;;
15317;SDS011;7759;52.528;13.346;2023-05-31T09:00:39;2.08;;;1.45;;
15317;SDS011;7759;52.528;13.346;2023-05-31T09:03:05;2.60;;;1.60;;
15317;SDS011;7759;52.528;13.346;2023-05-31T09:05:32;2.83;;;1.60;;
15317;SDS011;7759;52.528;13.346;2023-05-31T09:07:59;3.22;;;1.42;;
15317;SDS011;7759;52.528;13.346;2023-05-31T09:10:25;8.32;;;2.83;;
15317;SDS011;7759;52.528;13.346;2023-05-31T09:12:51;5.85;;;2.20;;
15317;SDS011;7759;52.528;13.346;2023-05-31T09:15:18;2.50;;;1.20;;
15317;SDS011;7759;52.528;13.346;2023-05-31T09:17:46;1.55;;;1.05;;
15317;SDS011;7759;52.528;13.346;2023-05-31T09:20:12;2.03;;;1.38;;
15317;SDS011;7759;52.528;13.346;2023-05-31T09:22:39;2.25;;;1.10;;
15317;SDS011;7759;52.528;13.346;2023-05-31T09:25:05;2.97;;;1.30;;
15317;SDS011;7759;52.528;13.346;2023-05-31T09:27:35;2.58;;;1.58;;
15317;SDS011;7759;52.528;13.346;2023-05-31T09:30:05;2.95;;;1.70;;
15317;SDS011;7759;52.528;13.346;2023-05-31T09:32:33;2.10;;;1.25;;
15317;SDS011;7759;52.528;13.346;2023-05-31T09:35:12;2.60;;;1.20;;
15317;SDS011;7759;52.528;13.346;2023-05-31T09:37:45;3.13;;;1.15;;
15317;SDS011;7759;52.528;13.346;2023-05-31T09:40:16;3.30;;;1.05;;
15317;SDS011;7759;52.528;13.346;2023-05-31T09:42:50;3.58;;;1.33;;
15317;SDS011;7759;52.528;13.346;2023-05-31T09:45:16;2.40;;;1.48;;
15317;SDS011;7759;52.528;13.346;2023-05-31T09:47:42;5.18;;;1.35;;
15317;SDS011;7759;52.528;13.346;2023-05-31T09:50:14;2.80;;;1.55;;
15317;SDS011;7759;52.528;13.346;2023-05-31T09:52:41;2.13;;;1.30;;
15317;SDS011;7759;52.528;13.346;2023-05-31T09:55:08;4.85;;;1.35;;
15317;SDS011;7759;52.528;13.346;2023-05-31T09:57:36;3.30;;;1.23;;
15317;SDS011;7759;52.528;13.346;2023-05-31T10:00:09;3.35;;;1.20;;
15317;SDS011;7759;52.528;13.346;2023-05-31T10:02:49;3.97;;;1.70;;
15317;SDS011;7759;52.528;13.346;2023-05-31T10:05:16;3.50;;;1.30;;
15317;SDS011;7759;52.528;13.346;2023-05-31T10:07:43;3.08;;;1.15;;
15317;SDS011;7759;52.528;13.346;2023-05-31T10:10:10;1.48;;;1.20;;
15317;SDS011;7759;52.528;13.346;2023-05-31T10:12:45;1.85;;;1.08;;
15317;SDS011;7759;52.528;13.346;2023-05-31T10:15:16;1.75;;;0.98;;
15317;SDS011;7759;52.528;13.346;2023-05-31T10:17:42;5.10;;;1.15;;
15317;SDS011;7759;52.528;13.346;2023-05-31T10:20:11;1.42;;;1.20;;
15317;SDS011;7759;52.528;13.346;2023-05-31T10:22:39;1.08;;;0.98;;
15317;SDS011;7759;52.528;13.346;2023-05-31T10:25:15;2.70;;;1.35;;
15317;SDS011;7759;52.528;13.346;2023-05-31T10:27:44;1.05;;;0.90;;
15317;SDS011;7759;52.528;13.346;2023-05-31T10:30:12;2.08;;;1.38;;
15317;SDS011;7759;52.528;13.346;2023-05-31T10:32:40;1.92;;;1.05;;
15317;SDS011;7759;52.528;13.346;2023-05-31T10:35:08;2.53;;;1.40;;
15317;SDS011;7759;52.528;13.346;2023-05-31T10:37:34;1.85;;;0.98;;
15317;SDS011;7759;52.528;13.346;2023-05-31T10:40:01;2.60;;;1.42;;
15317;SDS011;7759;52.528;13.346;2023-05-31T10:42:36;3.63;;;1.13;;
15317;SDS011;7759;52.528;13.346;2023-05-31T10:45:12;2.17;;;0.95;;
15317;SDS011;7759;52.528;13.346;2023-05-31T10:47:40;1.50;;;1.08;;
15317;SDS011;7759;52.528;13.346;2023-05-31T10:50:08;5.47;;;1.15;;
15317;SDS011;7759;52.528;13.346;2023-05-31T10:52:33;2.00;;;1.42;;
15317;SDS011;7759;52.528;13.346;2023-05-31T10:55:15;3.10;;;1.02;;
15317;SDS011;7759;52.528;13.346;2023-05-31T10:57:42;1.75;;;1.13;;
15317;SDS011;7759;52.528;13.346;2023-05-31T11:00:08;1.30;;;1.00;;
15317;SDS011;7759;52.528;13.346;2023-05-31T11:02:37;1.05;;;0.90;;
15317;SDS011;7759;52.528;13.346;2023-05-31T11:05:19;3.95;;;1.33;;
15317;SDS011;7759;52.528;13.346;2023-05-31T11:07:45;1.00;;;0.90;;
15317;SDS011;7759;52.528;13.346;2023-05-31T11:10:11;2.03;;;0.90;;
15317;SDS011;7759;52.528;13.346;2023-05-31T11:12:49;0.98;;;0.90;;
15317;SDS011;7759;52.528;13.346;2023-05-31T11:15:15;2.03;;;1.02;;
15317;SDS011;7759;52.528;13.346;2023-05-31T11:17:51;0.88;;;0.88;;
15317;SDS011;7759;52.528;13.346;2023-05-31T11:20:18;1.38;;;1.27;;
15317;SDS011;7759;52.528;13.346;2023-05-31T11:22:44;3.92;;;1.10;;
15317;SDS011;7759;52.528;13.346;2023-05-31T11:25:17;1.98;;;0.98;;
15317;SDS011;7759;52.528;13.346;2023-05-31T11:27:46;4.95;;;0.90;;
15317;SDS011;7759;52.528;13.346;2023-05-31T11:30:14;0.68;;;0.65;;
15317;SDS011;7759;52.528;13.346;2023-05-31T11:35:09;1.33;;;0.93;;
15317;SDS011;7759;52.528;13.346;2023-05-31T11:37:39;2.15;;;0.73;;
15317;SDS011;7759;52.528;13.346;2023-05-31T11:40:06;1.20;;;1.10;;
15317;SDS011;7759;52.528;13.346;2023-05-31T11:42:34;3.53;;;0.88;;
15317;SDS011;7759;52.528;13.346;2023-05-31T11:45:02;1.33;;;0.90;;
15317;SDS011;7759;52.528;13.346;2023-05-31T11:47:30;0.80;;;0.80;;
15317;SDS011;7759;52.528;13.346;2023-05-31T11:49:58;1.10;;;0.90;;
15317;SDS011;7759;52.528;13.346;2023-05-31T11:52:25;0.85;;;0.80;;
15317;SDS011;7759;52.528;13.346;2023-05-31T11:54:51;4.18;;;0.70;;
15317;SDS011;7759;52.528;13.346;2023-05-31T11:57:19;0.80;;;0.60;;
15317;SDS011;7759;52.528;13.346;2023-05-31T11:59:47;2.55;;;0.80;;
15317;SDS011;7759;52.528;13.346;2023-05-31T12:02:13;1.52;;;0.95;;
15317;SDS011;7759;52.528;13.346;2023-05-31T12:04:40;1.23;;;0.70;;
15317;SDS011;7759;52.528;13.346;2023-05-31T12:07:08;1.17;;;0.90;;
15317;SDS011;7759;52.528;13.346;2023-05-31T12:09:35;3.42;;;0.93;;
15317;SDS011;7759;52.528;13.346;2023-05-31T12:12:01;1.23;;;0.90;;
15317;SDS011;7759;52.528;13.346;2023-05-31T12:14:28;1.10;;;0.90;;
15317;SDS011;7759;52.528;13.346;2023-05-31T12:16:54;1.55;;;1.30;;
15317;SDS011;7759;52.528;13.346;2023-05-31T12:19:20;0.90;;;0.80;;
15317;SDS011;7759;52.528;13.346;2023-05-31T12:21:46;0.77;;;0.70;;
15317;SDS011;7759;52.528;13.346;2023-05-31T12:24:16;1.88;;;1.00;;
15317;SDS011;7759;52.528;13.346;2023-05-31T12:26:43;1.80;;;0.88;;
15317;SDS011;7759;52.528;13.346;2023-05-31T12:29:12;7.90;;;1.50;;
15317;SDS011;7759;52.528;13.346;2023-05-31T12:31:39;1.85;;;1.02;;
15317;SDS011;7759;52.528;13.346;2023-05-31T12:34:05;1.00;;;0.50;;
15317;SDS011;7759;52.528;13.346;2023-05-31T12:36:39;1.67;;;0.77;;
15317;SDS011;7759;52.528;13.346;2023-05-31T12:39:10;1.25;;;0.80;;
15317;SDS011;7759;52.528;13.346;2023-05-31T12:41:37;2.13;;;0.77;;
15317;SDS011;7759;52.528;13.346;2023-05-31T12:44:03;1.58;;;0.85;;
15317;SDS011;7759;52.528;13.346;2023-05-31T12:46:36;2.42;;;0.98;;
15317;SDS011;7759;52.528;13.346;2023-05-31T12:49:21;2.55;;;1.92;;
15317;SDS011;7759;52.528;13.346;2023-05-31T12:51:48;1.05;;;0.75;;
15317;SDS011;7759;52.528;13.346;2023-05-31T12:54:17;0.98;;;0.85;;
15317;SDS011;7759;52.528;13.346;2023-05-31T12:56:43;1.08;;;0.70;;
15317;SDS011;7759;52.528;13.346;2023-05-31T12:59:10;1.50;;;0.95;;
15317;SDS011;7759;52.528;13.346;2023-05-31T13:01:36;1.42;;;0.90;;
15317;SDS011;7759;52.528;13.346;2023-05-31T13:04:03;1.00;;;0.80;;
15317;SDS011;7759;52.528;13.346;2023-05-31T13:06:29;3.67;;;0.80;;
15317;SDS011;7759;52.528;13.346;2023-05-31T13:08:55;1.02;;;0.93;;
15317;SDS011;7759;52.528;13.346;2023-05-31T13:11:21;1.90;;;1.00;;
15317;SDS011;7759;52.528;13.346;2023-05-31T13:13:47;3.40;;;0.90;;
15317;SDS011;7759;52.528;13.346;2023-05-31T13:16:13;0.85;;;0.85;;
15317;SDS011;7759;52.528;13.346;2023-05-31T13:18:39;1.92;;;0.90;;
15317;SDS011;7759;52.528;13.346;2023-05-31T13:21:06;2.10;;;1.20;;
15317;SDS011;7759;52.528;13.346;2023-05-31T13:23:31;0.80;;;0.80;;
15317;SDS011;7759;52.528;13.346;2023-05-31T13:25:57;1.15;;;1.00;;
15317;SDS011;7759;52.528;13.346;2023-05-31T13:28:23;1.15;;;1.05;;
15317;SDS011;7759;52.528;13.346;2023-05-31T13:30:50;1.25;;;0.70;;
15317;SDS011;7759;52.528;13.346;2023-05-31T13:33:16;1.27;;;0.90;;
15317;SDS011;7759;52.528;13.346;2023-05-31T13:35:43;1.30;;;0.90;;
15317;SDS011;7759;52.528;13.346;2023-05-31T13:38:09;0.98;;;0.90;;
15317;SDS011;7759;52.528;13.346;2023-05-31T13:40:35;1.90;;;1.08;;
15317;SDS011;7759;52.528;13.346;2023-05-31T13:43:02;1.42;;;1.02;;
15317;SDS011;7759;52.528;13.346;2023-05-31T13:45:29;1.38;;;0.80;;
15317;SDS011;7759;52.528;13.346;2023-05-31T13:47:55;1.13;;;1.02;;
15317;SDS011;7759;52.528;13.346;2023-05-31T13:50:21;1.13;;;0.88;;
15317;SDS011;7759;52.528;13.346;2023-05-31T13:52:47;2.05;;;1.20;;
15317;SDS011;7759;52.528;13.346;2023-05-31T13:55:13;1.20;;;1.00;;
15317;SDS011;7759;52.528;13.346;2023-05-31T13:57:39;2.38;;;1.38;;
15317;SDS011;7759;52.528;13.346;2023-05-31T14:00:05;1.00;;;0.90;;
15317;SDS011;7759;52.528;13.346;2023-05-31T14:02:31;1.05;;;0.88;;
15317;SDS011;7759;52.528;13.346;2023-05-31T14:05:00;1.60;;;1.00;;
15317;SDS011;7759;52.528;13.346;2023-05-31T14:07:28;1.23;;;1.00;;
15317;SDS011;7759;52.528;13.346;2023-05-31T14:09:54;2.10;;;1.00;;
15317;SDS011;7759;52.528;13.346;2023-05-31T14:12:20;5.57;;;1.00;;
15317;SDS011;7759;52.528;13.346;2023-05-31T14:14:46;0.95;;;0.85;;
15317;SDS011;7759;52.528;13.346;2023-05-31T14:17:12;1.98;;;1.00;;
15317;SDS011;7759;52.528;13.346;2023-05-31T14:19:38;1.67;;;0.90;;
15317;SDS011;7759;52.528;13.346;2023-05-31T14:22:04;2.28;;;0.90;;
15317;SDS011;7759;52.528;13.346;2023-05-31T14:24:30;3.50;;;0.90;;
15317;SDS011;7759;52.528;13.346;2023-05-31T14:26:56;2.35;;;1.08;;
15317;SDS011;7759;52.528;13.346;2023-05-31T14:29:22;1.50;;;1.00;;
15317;SDS011;7759;52.528;13.346;2023-05-31T14:31:47;0.90;;;0.90;;
15317;SDS011;7759;52.528;13.346;2023-05-31T14:34:13;1.55;;;1.08;;
15317;SDS011;7759;52.528;13.346;2023-05-31T14:36:40;1.42;;;0.88;;
15317;SDS011;7759;52.528;13.346;2023-05-31T14:39:06;1.15;;;0.82;;
15317;SDS011;7759;52.528;13.346;2023-05-31T14:41:33;1.20;;;1.00;;
15317;SDS011;7759;52.528;13.346;2023-05-31T14:44:00;1.20;;;1.10;;
15317;SDS011;7759;52.528;13.346;2023-05-31T14:46:26;2.42;;;0.90;;
15317;SDS011;7759;52.528;13.346;2023-05-31T14:48:52;1.73;;;1.00;;
15317;SDS011;7759;52.528;13.346;2023-05-31T14:51:18;1.30;;;1.08;;
15317;SDS011;7759;52.528;13.346;2023-05-31T14:53:45;1.40;;;1.02;;
15317;SDS011;7759;52.528;13.346;2023-05-31T14:56:11;1.10;;;0.90;;
15317;SDS011;7759;52.528;13.346;2023-05-31T14:58:37;1.48;;;1.10;;
15317;SDS011;7759;52.528;13.346;2023-05-31T15:01:02;0.90;;;0.90;;
15317;SDS011;7759;52.528;13.346;2023-05-31T15:03:28;1.77;;;1.05;;